sensor_id;sensor_type;location;lat;lon;timestamp;P1;durP1;ratioP1;P2;durP2;ratioP2
938;SDS011;456;53.584;9.968;2022-09-17T16:40:21;4.20;;;1.80;;
938;SDS011;456;53.584;9.968;2022-09-17T16:42:55;5.23;;;2.40;;
938;SDS011;456;53.584;9.968;2022-09-17T16:45:24;9.07;;;2.80;;
938;SDS011;456;53.584;9.968;2022-09-17T16:47:49;4.23;;;2.00;;
938;SDS011;456;53.584;9.968;2022-09-17T16:50:16;7.00;;;3.10;;
938;SDS011;456;53.584;9.968;2022-09-17T16:52:42;7.97;;;2.53;;
938;SDS011;456;53.584;9.968;2022-09-17T16:55:09;10.13;;;2.40;;
938;SDS011;456;53.584;9.968;2022-09-17T16:57:40;6.53;;;2.60;;
938;SDS011;456;53.584;9.968;2022-09-17T17:00:07;4.30;;;2.20;;
938;SDS011;456;53.584;9.968;2022-09-17T17:02:38;6.77;;;2.47;;
938;SDS011;456;53.584;9.968;2022-09-17T17:05:04;11.60;;;5.40;;
938;SDS011;456;53.584;9.968;2022-09-17T17:07:30;15.10;;;7.50;;
938;SDS011;456;53.584;9.968;2022-09-17T17:09:56;20.60;;;8.40;;
938;SDS011;456;53.584;9.968;2022-09-17T17:12:26;16.03;;;8.90;;
938;SDS011;456;53.584;9.968;2022-09-17T17:14:51;21.20;;;7.97;;
938;SDS011;456;53.584;9.968;2022-09-17T17:17:17;10.87;;;6.53;;
938;SDS011;456;53.584;9.968;2022-09-17T17:19:45;28.07;;;7.60;;
938;SDS011;456;53.584;9.968;2022-09-17T17:22:11;18.30;;;6.63;;
938;SDS011;456;53.584;9.968;2022-09-17T17:24:37;16.67;;;6.73;;
938;SDS011;456;53.584;9.968;2022-09-17T17:27:03;23.03;;;5.83;;
938;SDS011;456;53.584;9.968;2022-09-17T17:29:29;18.00;;;6.80;;
938;SDS011;456;53.584;9.968;2022-09-17T17:31:54;9.23;;;5.10;;
938;SDS011;456;53.584;9.968;2022-09-17T17:34:20;15.67;;;5.60;;
938;SDS011;456;53.584;9.968;2022-09-17T17:36:48;16.90;;;6.53;;
938;SDS011;456;53.584;9.968;2022-09-17T17:39:14;9.23;;;4.90;;
938;SDS011;456;53.584;9.968;2022-09-17T17:41:40;9.07;;;5.40;;
938;SDS011;456;53.584;9.968;2022-09-17T17:44:06;16.67;;;6.10;;
938;SDS011;456;53.584;9.968;2022-09-17T17:46:33;13.50;;;5.33;;
938;SDS011;456;53.584;9.968;2022-09-17T17:48:58;12.70;;;5.00;;
938;SDS011;456;53.584;9.968;2022-09-17T17:51:24;10.40;;;5.07;;
938;SDS011;456;53.584;9.968;2022-09-17T17:53:51;8.87;;;4.20;;
938;SDS011;456;53.584;9.968;2022-09-17T17:56:16;7.00;;;4.47;;
938;SDS011;456;53.584;9.968;2022-09-17T17:58:43;8.00;;;4.37;;
938;SDS011;456;53.584;9.968;2022-09-17T18:01:17;9.57;;;4.20;;
938;SDS011;456;53.584;9.968;2022-09-17T18:03:44;9.53;;;4.50;;
938;SDS011;456;53.584;9.968;2022-09-17T18:06:10;8.83;;;4.50;;
938;SDS011;456;53.584;9.968;2022-09-17T18:08:37;7.10;;;4.47;;
938;SDS011;456;53.584;9.968;2022-09-17T18:11:04;6.73;;;3.70;;
938;SDS011;456;53.584;9.968;2022-09-17T18:13:32;4.97;;;3.30;;
938;SDS011;456;53.584;9.968;2022-09-17T18:15:58;9.37;;;3.60;;
938;SDS011;456;53.584;9.968;2022-09-17T18:18:29;13.70;;;3.83;;
938;SDS011;456;53.584;9.968;2022-09-17T18:21:03;7.80;;;4.23;;
938;SDS011;456;53.584;9.968;2022-09-17T18:23:32;9.60;;;4.10;;
938;SDS011;456;53.584;9.968;2022-09-17T18:25:58;6.03;;;3.53;;
938;SDS011;456;53.584;9.968;2022-09-17T18:28:25;8.33;;;3.30;;
938;SDS011;456;53.584;9.968;2022-09-17T18:30:52;7.90;;;3.60;;
938;SDS011;456;53.584;9.968;2022-09-17T18:33:19;9.27;;;3.40;;
938;SDS011;456;53.584;9.968;2022-09-17T18:35:48;9.10;;;3.63;;
938;SDS011;456;53.584;9.968;2022-09-17T18:38:14;5.87;;;3.10;;
938;SDS011;456;53.584;9.968;2022-09-17T18:40:41;8.93;;;3.43;;
938;SDS011;456;53.584;9.968;2022-09-17T18:43:07;7.80;;;3.03;;
938;SDS011;456;53.584;9.968;2022-09-17T18:45:33;6.97;;;3.40;;
938;SDS011;456;53.584;9.968;2022-09-17T18:47:59;8.50;;;3.77;;
938;SDS011;456;53.584;9.968;2022-09-17T18:50:24;8.10;;;3.40;;
938;SDS011;456;53.584;9.968;2022-09-17T18:52:50;10.67;;;3.73;;
938;SDS011;456;53.584;9.968;2022-09-17T18:55:16;5.00;;;2.40;;
938;SDS011;456;53.584;9.968;2022-09-17T18:57:41;7.90;;;3.43;;
938;SDS011;456;53.584;9.968;2022-09-17T19:00:07;5.33;;;3.27;;
938;SDS011;456;53.584;9.968;2022-09-17T19:02:35;8.20;;;3.50;;
938;SDS011;456;53.584;9.968;2022-09-17T19:05:02;5.00;;;2.73;;
938;SDS011;456;53.584;9.968;2022-09-17T19:07:28;5.73;;;3.17;;
938;SDS011;456;53.584;9.968;2022-09-17T19:09:54;7.63;;;3.33;;
938;SDS011;456;53.584;9.968;2022-09-17T19:12:20;5.53;;;2.73;;
938;SDS011;456;53.584;9.968;2022-09-17T19:14:46;4.10;;;2.17;;
938;SDS011;456;53.584;9.968;2022-09-17T19:17:12;5.80;;;2.50;;
938;SDS011;456;53.584;9.968;2022-09-17T19:19:37;5.77;;;2.70;;
938;SDS011;456;53.584;9.968;2022-09-17T19:22:03;7.50;;;3.63;;
938;SDS011;456;53.584;9.968;2022-09-17T19:24:28;5.30;;;2.50;;
938;SDS011;456;53.584;9.968;2022-09-17T19:26:54;7.07;;;2.73;;
938;SDS011;456;53.584;9.968;2022-09-17T19:29:19;4.33;;;2.77;;
938;SDS011;456;53.584;9.968;2022-09-17T19:31:45;7.27;;;3.20;;
938;SDS011;456;53.584;9.968;2022-09-17T19:34:10;5.80;;;2.57;;
938;SDS011;456;53.584;9.968;2022-09-17T19:36:36;6.27;;;2.67;;
938;SDS011;456;53.584;9.968;2022-09-17T19:39:02;4.93;;;2.20;;
938;SDS011;456;53.584;9.968;2022-09-17T19:41:27;3.77;;;2.20;;
938;SDS011;456;53.584;9.968;2022-09-17T19:43:55;6.23;;;2.20;;
938;SDS011;456;53.584;9.968;2022-09-17T19:46:21;3.93;;;2.40;;
938;SDS011;456;53.584;9.968;2022-09-17T19:48:49;6.70;;;2.70;;
938;SDS011;456;53.584;9.968;2022-09-17T19:51:19;3.10;;;2.30;;
938;SDS011;456;53.584;9.968;2022-09-17T19:53:46;2.87;;;1.93;;
938;SDS011;456;53.584;9.968;2022-09-17T19:56:13;4.30;;;2.47;;
938;SDS011;456;53.584;9.968;2022-09-17T19:58:43;5.43;;;2.07;;
938;SDS011;456;53.584;9.968;2022-09-17T20:01:09;3.60;;;2.00;;
938;SDS011;456;53.584;9.968;2022-09-17T20:03:38;3.53;;;2.20;;
938;SDS011;456;53.584;9.968;2022-09-17T20:06:05;4.37;;;2.30;;
938;SDS011;456;53.584;9.968;2022-09-17T20:08:32;2.10;;;1.83;;
938;SDS011;456;53.584;9.968;2022-09-17T20:11:05;4.60;;;2.13;;
938;SDS011;456;53.584;9.968;2022-09-17T20:13:32;3.80;;;2.80;;
938;SDS011;456;53.584;9.968;2022-09-17T20:16:04;2.77;;;1.80;;
938;SDS011;456;53.584;9.968;2022-09-17T20:18:34;4.10;;;2.37;;
938;SDS011;456;53.584;9.968;2022-09-17T20:21:05;3.60;;;1.80;;
938;SDS011;456;53.584;9.968;2022-09-17T20:23:34;3.23;;;2.50;;
938;SDS011;456;53.584;9.968;2022-09-17T20:25:59;3.40;;;2.20;;
938;SDS011;456;53.584;9.968;2022-09-17T20:28:25;3.47;;;2.30;;
938;SDS011;456;53.584;9.968;2022-09-17T20:31:00;2.37;;;1.80;;
938;SDS011;456;53.584;9.968;2022-09-17T20:33:28;3.07;;;2.00;;
938;SDS011;456;53.584;9.968;2022-09-17T20:35:59;3.40;;;1.80;;
938;SDS011;456;53.584;9.968;2022-09-17T20:38:26;4.53;;;2.10;;
938;SDS011;456;53.584;9.968;2022-09-17T20:40:52;2.40;;;1.73;;
938;SDS011;456;53.584;9.968;2022-09-17T20:43:18;3.67;;;2.00;;
938;SDS011;456;53.584;9.968;2022-09-17T20:45:51;3.00;;;2.10;;
938;SDS011;456;53.584;9.968;2022-09-17T20:48:18;3.10;;;2.10;;
938;SDS011;456;53.584;9.968;2022-09-17T20:50:53;3.57;;;2.27;;
938;SDS011;456;53.584;9.968;2022-09-17T20:53:19;2.40;;;1.70;;
938;SDS011;456;53.584;9.968;2022-09-17T20:55:52;3.37;;;1.90;;
938;SDS011;456;53.584;9.968;2022-09-17T20:58:22;2.17;;;1.60;;
938;SDS011;456;53.584;9.968;2022-09-17T21:00:48;3.23;;;1.90;;
938;SDS011;456;53.584;9.968;2022-09-17T21:03:14;5.80;;;2.30;;
938;SDS011;456;53.584;9.968;2022-09-17T21:05:39;3.83;;;2.30;;
938;SDS011;456;53.584;9.968;2022-09-17T21:08:05;2.40;;;1.50;;
938;SDS011;456;53.584;9.968;2022-09-17T21:10:31;3.33;;;1.90;;
938;SDS011;456;53.584;9.968;2022-09-17T21:12:57;2.93;;;1.90;;
938;SDS011;456;53.584;9.968;2022-09-17T21:15:23;2.40;;;1.77;;
938;SDS011;456;53.584;9.968;2022-09-17T21:17:48;4.00;;;2.10;;
938;SDS011;456;53.584;9.968;2022-09-17T21:20:14;2.23;;;1.50;;
938;SDS011;456;53.584;9.968;2022-09-17T21:22:41;2.67;;;1.87;;
938;SDS011;456;53.584;9.968;2022-09-17T21:25:07;3.40;;;1.57;;
938;SDS011;456;53.584;9.968;2022-09-17T21:27:33;2.53;;;1.53;;
938;SDS011;456;53.584;9.968;2022-09-17T21:29:58;3.63;;;1.73;;
938;SDS011;456;53.584;9.968;2022-09-17T21:32:26;3.40;;;1.73;;
938;SDS011;456;53.584;9.968;2022-09-17T21:34:51;1.53;;;1.40;;
938;SDS011;456;53.584;9.968;2022-09-17T21:37:17;4.23;;;1.70;;
938;SDS011;456;53.584;9.968;2022-09-17T21:39:43;2.20;;;1.53;;
938;SDS011;456;53.584;9.968;2022-09-17T21:42:08;2.67;;;1.80;;
938;SDS011;456;53.584;9.968;2022-09-17T21:44:34;1.90;;;1.70;;
938;SDS011;456;53.584;9.968;2022-09-17T21:46:59;2.73;;;1.67;;
938;SDS011;456;53.584;9.968;2022-09-17T21:49:25;2.03;;;1.40;;
938;SDS011;456;53.584;9.968;2022-09-17T21:51:50;2.27;;;1.60;;
938;SDS011;456;53.584;9.968;2022-09-17T21:54:16;2.13;;;1.93;;
938;SDS011;456;53.584;9.968;2022-09-17T21:56:43;2.30;;;1.30;;
938;SDS011;456;53.584;9.968;2022-09-17T21:59:10;2.43;;;1.70;;
938;SDS011;456;53.584;9.968;2022-09-17T22:01:41;1.53;;;1.30;;
938;SDS011;456;53.584;9.968;2022-09-17T22:04:11;2.90;;;1.43;;
938;SDS011;456;53.584;9.968;2022-09-17T22:06:38;1.50;;;1.40;;
938;SDS011;456;53.584;9.968;2022-09-17T22:09:07;1.60;;;1.20;;
938;SDS011;456;53.584;9.968;2022-09-17T22:11:46;2.43;;;1.53;;
938;SDS011;456;53.584;9.968;2022-09-17T22:14:13;2.23;;;1.80;;
938;SDS011;456;53.584;9.968;2022-09-17T22:16:43;2.10;;;1.37;;
938;SDS011;456;53.584;9.968;2022-09-17T22:19:10;2.30;;;1.43;;
938;SDS011;456;53.584;9.968;2022-09-17T22:21:38;2.27;;;1.50;;
938;SDS011;456;53.584;9.968;2022-09-17T22:24:06;1.93;;;1.50;;
938;SDS011;456;53.584;9.968;2022-09-17T22:26:34;2.37;;;1.50;;
938;SDS011;456;53.584;9.968;2022-09-17T22:29:03;2.60;;;1.30;;
938;SDS011;456;53.584;9.968;2022-09-17T22:31:33;2.50;;;1.40;;
938;SDS011;456;53.584;9.968;2022-09-17T22:33:59;1.53;;;1.00;;
938;SDS011;456;53.584;9.968;2022-09-17T22:36:25;1.83;;;1.60;;
938;SDS011;456;53.584;9.968;2022-09-17T22:38:53;1.37;;;1.10;;
938;SDS011;456;53.584;9.968;2022-09-17T22:41:21;2.70;;;1.30;;
938;SDS011;456;53.584;9.968;2022-09-17T22:43:58;1.80;;;1.40;;
938;SDS011;456;53.584;9.968;2022-09-17T22:46:26;1.80;;;1.40;;
938;SDS011;456;53.584;9.968;2022-09-17T22:48:54;2.33;;;1.20;;
938;SDS011;456;53.584;9.968;2022-09-17T22:51:20;1.67;;;0.80;;
938;SDS011;456;53.584;9.968;2022-09-17T22:53:46;1.60;;;0.90;;
938;SDS011;456;53.584;9.968;2022-09-17T22:56:13;4.50;;;1.40;;
938;SDS011;456;53.584;9.968;2022-09-17T22:58:40;4.10;;;1.30;;
938;SDS011;456;53.584;9.968;2022-09-17T23:01:06;3.00;;;1.37;;
938;SDS011;456;53.584;9.968;2022-09-17T23:03:55;1.00;;;0.83;;
938;SDS011;456;53.584;9.968;2022-09-17T23:06:23;2.00;;;1.50;;
938;SDS011;456;53.584;9.968;2022-09-17T23:08:50;1.90;;;1.13;;
938;SDS011;456;53.584;9.968;2022-09-17T23:11:20;1.43;;;1.00;;
938;SDS011;456;53.584;9.968;2022-09-17T23:13:49;2.30;;;1.10;;
938;SDS011;456;53.584;9.968;2022-09-17T23:16:15;1.13;;;0.87;;
938;SDS011;456;53.584;9.968;2022-09-17T23:18:41;1.83;;;1.50;;
938;SDS011;456;53.584;9.968;2022-09-17T23:21:12;0.90;;;0.80;;
938;SDS011;456;53.584;9.968;2022-09-17T23:23:40;1.83;;;1.20;;
938;SDS011;456;53.584;9.968;2022-09-17T23:26:08;2.03;;;1.20;;
938;SDS011;456;53.584;9.968;2022-09-17T23:28:38;2.27;;;1.10;;
938;SDS011;456;53.584;9.968;2022-09-17T23:31:06;1.73;;;1.40;;
938;SDS011;456;53.584;9.968;2022-09-17T23:33:32;2.50;;;1.33;;
938;SDS011;456;53.584;9.968;2022-09-17T23:36:02;1.73;;;1.13;;
938;SDS011;456;53.584;9.968;2022-09-17T23:38:32;6.80;;;1.40;;
938;SDS011;456;53.584;9.968;2022-09-17T23:41:15;1.53;;;1.03;;
938;SDS011;456;53.584;9.968;2022-09-17T23:43:49;1.83;;;1.00;;
938;SDS011;456;53.584;9.968;2022-09-17T23:46:16;3.07;;;1.10;;
938;SDS011;456;53.584;9.968;2022-09-17T23:48:43;1.57;;;1.10;;
938;SDS011;456;53.584;9.968;2022-09-17T23:51:09;2.60;;;1.00;;
938;SDS011;456;53.584;9.968;2022-09-17T23:53:34;2.20;;;1.00;;
938;SDS011;456;53.584;9.968;2022-09-17T23:56:01;1.90;;;1.40;;
938;SDS011;456;53.584;9.968;2022-09-17T23:58:28;2.43;;;0.87;;
